createdAt,value
2019-05-25T00:00:51.851Z,1008.35
2019-05-25T00:01:51.854Z,1008.37
2019-05-25T00:02:51.859Z,1008.35
2019-05-25T00:03:51.846Z,1008.35
2019-05-25T00:04:51.841Z,1008.33
2019-05-25T00:05:51.837Z,1008.37
2019-05-25T00:06:51.860Z,1008.38
2019-05-25T00:07:51.840Z,1008.35
2019-05-25T00:08:51.841Z,1008.38
2019-05-25T00:09:51.832Z,1008.33
2019-05-25T00:10:51.832Z,1008.37
2019-05-25T00:11:51.829Z,1008.39
2019-05-25T00:12:51.826Z,1008.38
2019-05-25T00:13:51.823Z,1008.39
2019-05-25T00:14:51.822Z,1008.42
2019-05-25T00:15:51.820Z,1008.41
2019-05-25T00:16:51.822Z,1008.41
2019-05-25T00:17:51.815Z,1008.46
2019-05-25T00:18:51.813Z,1008.47
2019-05-25T00:19:51.816Z,1008.41
2019-05-25T00:20:51.810Z,1008.46
2019-05-25T00:21:51.806Z,1008.45
2019-05-25T00:22:51.807Z,1008.44
2019-05-25T00:23:51.805Z,1008.46
2019-05-25T00:24:51.799Z,1008.48
2019-05-25T00:25:51.805Z,1008.47
2019-05-25T00:26:51.804Z,1008.47
2019-05-25T00:27:51.796Z,1008.48
2019-05-25T00:28:51.793Z,1008.47
2019-05-25T00:29:51.788Z,1008.50
2019-05-25T00:30:51.787Z,1008.53
2019-05-25T00:31:51.785Z,1008.54
2019-05-25T00:32:51.783Z,1008.54
2019-05-25T00:33:51.779Z,1008.55
2019-05-25T00:34:51.780Z,1008.55
2019-05-25T00:35:51.775Z,1008.56
2019-05-25T00:36:51.778Z,1008.58
2019-05-25T00:37:51.769Z,1008.56
2019-05-25T00:38:51.769Z,1008.58
2019-05-25T00:39:51.770Z,1008.59
2019-05-25T00:40:51.769Z,1008.63
2019-05-25T00:41:51.762Z,1008.66
2019-05-25T00:42:51.761Z,1008.69
2019-05-25T00:43:51.759Z,1008.68
2019-05-25T00:44:51.755Z,1008.69
2019-05-25T00:45:51.766Z,1008.70
2019-05-25T00:46:51.749Z,1008.71
2019-05-25T00:47:51.747Z,1008.68
2019-05-25T00:48:51.749Z,1008.70
2019-05-25T00:49:51.741Z,1008.68
2019-05-25T00:50:51.740Z,1008.70
2019-05-25T00:51:51.738Z,1008.66
2019-05-25T00:52:51.735Z,1008.69
2019-05-25T00:53:51.742Z,1008.67
2019-05-25T00:54:51.731Z,1008.65
2019-05-25T00:55:51.728Z,1008.70
2019-05-25T00:56:51.728Z,1008.67
2019-05-25T00:57:51.721Z,1008.67
2019-05-25T00:58:51.731Z,1008.69
2019-05-25T00:59:51.718Z,1008.68
2019-05-25T01:00:51.721Z,1008.67
2019-05-25T01:01:51.716Z,1008.70
2019-05-25T01:02:51.770Z,1008.72
2019-05-25T01:03:51.706Z,1008.69
2019-05-25T01:04:51.705Z,1008.69
2019-05-25T01:05:51.704Z,1008.70
2019-05-25T01:06:51.700Z,1008.72
2019-05-25T01:07:51.697Z,1008.70
2019-05-25T01:08:51.693Z,1008.70
2019-05-25T01:09:51.689Z,1008.69
2019-05-25T01:10:51.690Z,1008.73
2019-05-25T01:11:51.688Z,1008.77
2019-05-25T01:12:51.684Z,1008.78
2019-05-25T01:13:51.687Z,1008.79
2019-05-25T01:14:51.679Z,1008.80
2019-05-25T01:15:51.674Z,1008.81
2019-05-25T01:16:51.673Z,1008.79
2019-05-25T01:17:51.672Z,1008.82
2019-05-25T01:18:51.668Z,1008.83
2019-05-25T01:19:51.666Z,1008.82
2019-05-25T01:20:51.674Z,1008.81
2019-05-25T01:21:51.658Z,1008.82
2019-05-25T01:22:51.654Z,1008.81
2019-05-25T01:23:51.654Z,1008.85
2019-05-25T01:24:51.650Z,1008.83
2019-05-25T01:25:51.647Z,1008.84
2019-05-25T01:26:51.645Z,1008.85
2019-05-25T01:27:51.642Z,1008.86
2019-05-25T01:28:51.642Z,1008.85
2019-05-25T01:29:51.634Z,1008.83
2019-05-25T01:30:51.631Z,1008.82
2019-05-25T01:31:51.626Z,1008.84
2019-05-25T01:32:51.624Z,1008.82
2019-05-25T01:33:51.624Z,1008.81
2019-05-25T01:34:51.619Z,1008.82
2019-05-25T01:35:51.619Z,1008.83
2019-05-25T01:36:51.612Z,1008.84
2019-05-25T01:37:51.608Z,1008.89
2019-05-25T01:38:51.607Z,1008.86
2019-05-25T01:39:51.603Z,1008.84
2019-05-25T01:40:51.599Z,1008.88
2019-05-25T01:41:51.594Z,1008.82
2019-05-25T01:42:51.606Z,1008.86
2019-05-25T01:43:51.597Z,1008.83
2019-05-25T01:44:51.586Z,1008.89
2019-05-25T01:45:51.581Z,1008.90
2019-05-25T01:46:51.581Z,1008.90
2019-05-25T01:47:51.578Z,1008.89
2019-05-25T01:48:51.682Z,1008.93
2019-05-25T01:49:51.568Z,1008.91
2019-05-25T01:50:51.567Z,1008.90
2019-05-25T01:51:51.565Z,1008.89
2019-05-25T01:52:51.563Z,1008.89
2019-05-25T01:53:51.571Z,1008.95
2019-05-25T01:55:00.027Z,1008.90
2019-05-25T01:55:51.551Z,1008.88
2019-05-25T01:56:51.546Z,1008.89
2019-05-25T01:57:51.547Z,1008.86
2019-05-25T01:58:51.558Z,1008.90
2019-05-25T01:59:51.535Z,1008.88
2019-05-25T02:00:51.538Z,1008.89
2019-05-25T02:01:51.530Z,1008.93
2019-05-25T02:02:51.526Z,1008.99
2019-05-25T02:03:51.521Z,1008.98
2019-05-25T02:04:51.519Z,1008.95
2019-05-25T02:05:51.511Z,1008.95
2019-05-25T02:06:51.509Z,1008.99
2019-05-25T02:07:51.506Z,1009.01
2019-05-25T02:08:51.505Z,1008.99
2019-05-25T02:09:51.504Z,1009.03
2019-05-25T02:10:51.493Z,1009.04
2019-05-25T02:11:51.490Z,1009.01
2019-05-25T02:12:51.486Z,1009.04
2019-05-25T02:13:51.489Z,1008.99
2019-05-25T02:14:51.480Z,1008.99
2019-05-25T02:15:51.476Z,1009.01
2019-05-25T02:16:51.472Z,1009.01
2019-05-25T02:17:51.468Z,1009.01
2019-05-25T02:18:51.472Z,1009.02
2019-05-25T02:19:51.466Z,1009.00
2019-05-25T02:20:51.460Z,1009.03
2019-05-25T02:21:51.467Z,1009.02
2019-05-25T02:22:51.449Z,1009.03
2019-05-25T02:23:51.449Z,1009.05
2019-05-25T02:24:51.492Z,1009.08
2019-05-25T02:25:51.437Z,1009.04
2019-05-25T02:26:51.458Z,1009.06
2019-05-25T02:27:51.429Z,1009.05
2019-05-25T02:28:51.492Z,1009.01
2019-05-25T02:29:51.426Z,1009.01
2019-05-25T02:30:51.422Z,1008.99
2019-05-25T02:31:51.415Z,1009.01
2019-05-25T02:32:51.414Z,1009.00
2019-05-25T02:33:51.408Z,1009.03
2019-05-25T02:34:51.402Z,1009.02
2019-05-25T02:35:51.399Z,1009.10
2019-05-25T02:36:51.396Z,1009.06
2019-05-25T02:37:51.394Z,1009.08
2019-05-25T02:38:51.389Z,1009.09
2019-05-25T02:39:51.392Z,1009.05
2019-05-25T02:40:51.381Z,1009.11
2019-05-25T02:41:51.376Z,1009.09
2019-05-25T02:42:51.371Z,1009.06
2019-05-25T02:43:51.369Z,1009.10
2019-05-25T02:44:51.365Z,1009.09
2019-05-25T02:45:51.359Z,1009.13
2019-05-25T02:46:51.356Z,1009.12
2019-05-25T02:47:51.351Z,1009.12
2019-05-25T02:48:51.365Z,1009.11
2019-05-25T02:49:51.372Z,1009.14
2019-05-25T02:50:53.110Z,1009.15
2019-05-25T02:51:51.338Z,1009.18
2019-05-25T02:52:51.333Z,1009.16
2019-05-25T02:53:51.331Z,1009.22
2019-05-25T02:54:51.324Z,1009.16
2019-05-25T02:55:51.322Z,1009.23
2019-05-25T02:56:51.318Z,1009.18
2019-05-25T02:57:51.313Z,1009.22
2019-05-25T02:58:51.307Z,1009.21
2019-05-25T02:59:51.304Z,1009.18
2019-05-25T03:00:51.300Z,1009.23
2019-05-25T03:01:51.294Z,1009.21
2019-05-25T03:02:51.294Z,1009.22
2019-05-25T03:03:51.292Z,1009.22
2019-05-25T03:04:51.287Z,1009.21
2019-05-25T03:05:51.278Z,1009.21
2019-05-25T03:06:51.276Z,1009.23
2019-05-25T03:07:51.272Z,1009.21
2019-05-25T03:08:51.268Z,1009.24
2019-05-25T03:09:51.260Z,1009.22
2019-05-25T03:10:51.328Z,1009.26
2019-05-25T03:11:51.253Z,1009.27
2019-05-25T03:12:51.253Z,1009.27
2019-05-25T03:13:51.244Z,1009.26
2019-05-25T03:14:51.241Z,1009.31
2019-05-25T03:15:51.238Z,1009.28
2019-05-25T03:16:51.233Z,1009.33
2019-05-25T03:17:51.230Z,1009.30
2019-05-25T03:18:51.225Z,1009.31
2019-05-25T03:19:51.220Z,1009.35
2019-05-25T03:20:51.217Z,1009.36
2019-05-25T03:21:51.204Z,1009.37
2019-05-25T03:22:51.209Z,1009.32
2019-05-25T03:23:51.204Z,1009.35
2019-05-25T03:24:51.200Z,1009.35
2019-05-25T03:25:51.199Z,1009.36
2019-05-25T03:26:51.190Z,1009.35
2019-05-25T03:27:51.191Z,1009.35
2019-05-25T03:28:51.184Z,1009.38
2019-05-25T03:29:51.179Z,1009.36
2019-05-25T03:30:51.180Z,1009.38
2019-05-25T03:31:51.172Z,1009.41
2019-05-25T03:32:51.169Z,1009.40
2019-05-25T03:33:51.163Z,1009.42
2019-05-25T03:34:51.160Z,1009.40
2019-05-25T03:35:51.157Z,1009.41
2019-05-25T03:36:51.153Z,1009.42
2019-05-25T03:37:51.148Z,1009.43
2019-05-25T03:38:51.143Z,1009.44
2019-05-25T03:39:51.187Z,1009.45
2019-05-25T03:40:51.135Z,1009.45
2019-05-25T03:41:51.130Z,1009.47
2019-05-25T03:42:51.129Z,1009.49
2019-05-25T03:43:51.122Z,1009.47
2019-05-25T03:44:51.138Z,1009.48
2019-05-25T03:45:51.130Z,1009.49
2019-05-25T03:46:51.129Z,1009.52
2019-05-25T03:47:51.110Z,1009.52
2019-05-25T03:48:51.151Z,1009.52
2019-05-25T03:49:51.097Z,1009.56
2019-05-25T03:50:51.123Z,1009.54
2019-05-25T03:51:51.093Z,1009.58
2019-05-25T03:52:51.087Z,1009.54
2019-05-25T03:53:51.098Z,1009.53
2019-05-25T03:54:51.080Z,1009.55
2019-05-25T03:56:04.660Z,1009.54
2019-05-25T03:56:51.072Z,1009.53
2019-05-25T03:57:51.067Z,1009.54
2019-05-25T03:58:51.064Z,1009.56
2019-05-25T03:59:51.061Z,1009.56
2019-05-25T04:00:51.077Z,1009.55
2019-05-25T04:01:51.060Z,1009.56
2019-05-25T04:02:51.107Z,1009.54
2019-05-25T04:03:51.047Z,1009.51
2019-05-25T04:04:51.043Z,1009.52
2019-05-25T04:05:51.037Z,1009.54
2019-05-25T04:06:51.037Z,1009.52
2019-05-25T04:07:51.032Z,1009.49
2019-05-25T04:08:51.029Z,1009.52
2019-05-25T04:09:51.024Z,1009.53
2019-05-25T04:10:51.022Z,1009.50
2019-05-25T04:11:51.018Z,1009.51
2019-05-25T04:12:51.021Z,1009.51
2019-05-25T04:13:51.009Z,1009.50
2019-05-25T04:14:51.007Z,1009.48
2019-05-25T04:15:51.004Z,1009.53
2019-05-25T04:16:51.000Z,1009.50
2019-05-25T04:17:50.997Z,1009.51
2019-05-25T04:18:51.002Z,1009.56
2019-05-25T04:19:51.004Z,1009.58
2019-05-25T04:20:50.988Z,1009.54
2019-05-25T04:21:50.997Z,1009.58
2019-05-25T04:22:50.982Z,1009.55
2019-05-25T04:23:50.981Z,1009.57
2019-05-25T04:24:51.003Z,1009.58
2019-05-25T04:25:50.968Z,1009.57
2019-05-25T04:26:50.964Z,1009.60
2019-05-25T04:27:50.961Z,1009.67
2019-05-25T04:28:50.957Z,1009.61
2019-05-25T04:29:50.956Z,1009.53
2019-05-25T04:30:50.951Z,1009.61
2019-05-25T04:31:50.949Z,1009.73
2019-05-25T04:32:50.945Z,1009.68
2019-05-25T04:33:50.940Z,1009.72
2019-05-25T04:34:50.940Z,1009.68
2019-05-25T04:35:50.933Z,1009.67
2019-05-25T04:36:50.934Z,1009.71
2019-05-25T04:37:50.927Z,1009.77
2019-05-25T04:38:50.940Z,1009.75
2019-05-25T04:39:50.922Z,1009.77
2019-05-25T04:40:50.918Z,1009.79
2019-05-25T04:41:50.915Z,1009.81
2019-05-25T04:42:50.932Z,1009.82
2019-05-25T04:43:50.921Z,1009.86
2019-05-25T04:44:50.944Z,1009.85
2019-05-25T04:45:50.903Z,1009.88
2019-05-25T04:46:50.899Z,1009.85
2019-05-25T04:47:50.897Z,1009.85
2019-05-25T04:48:50.910Z,1009.82
2019-05-25T04:49:50.891Z,1009.90
2019-05-25T04:50:50.911Z,1009.93
2019-05-25T04:51:50.887Z,1009.98
2019-05-25T04:52:50.890Z,1009.96
2019-05-25T04:53:50.881Z,1009.98
2019-05-25T04:54:50.878Z,1009.95
2019-05-25T04:55:50.876Z,1009.94
2019-05-25T04:56:50.876Z,1009.96
2019-05-25T04:57:50.876Z,1010.06
2019-05-25T04:58:50.870Z,1010.06
2019-05-25T04:59:50.867Z,1010.09
2019-05-25T05:00:50.868Z,1010.06
2019-05-25T05:01:50.864Z,1010.06
2019-05-25T05:02:50.873Z,1010.05
2019-05-25T05:03:50.857Z,1010.00
2019-05-25T05:04:50.861Z,1009.99
2019-05-25T05:05:50.853Z,1010.03
2019-05-25T05:06:50.852Z,1010.02
2019-05-25T05:07:50.849Z,1010.10
2019-05-25T05:08:50.870Z,1010.12
2019-05-25T05:10:02.310Z,1010.11
2019-05-25T05:10:50.844Z,1010.13
2019-05-25T05:11:50.840Z,1010.13
2019-05-25T05:12:50.838Z,1010.11
2019-05-25T05:13:50.834Z,1010.14
2019-05-25T05:14:50.865Z,1010.16
2019-05-25T05:15:50.832Z,1010.20
2019-05-25T05:16:50.829Z,1010.12
2019-05-25T05:17:50.859Z,1010.14
2019-05-25T05:18:50.826Z,1010.09
2019-05-25T05:19:50.825Z,1010.18
2019-05-25T05:20:50.823Z,1010.17
2019-05-25T05:21:50.820Z,1010.13
2019-05-25T05:22:50.821Z,1010.14
2019-05-25T05:23:50.827Z,1010.14
2019-05-25T05:24:50.815Z,1010.21
2019-05-25T05:25:50.812Z,1010.16
2019-05-25T05:26:55.834Z,1010.15
2019-05-25T05:27:50.810Z,1010.08
2019-05-25T05:28:50.814Z,1010.09
2019-05-25T05:29:50.807Z,1010.10
2019-05-25T05:30:50.806Z,1010.16
2019-05-25T05:31:50.805Z,1010.15
2019-05-25T05:32:50.806Z,1010.16
2019-05-25T05:33:50.806Z,1010.15
2019-05-25T05:34:50.802Z,1010.17
2019-05-25T05:35:50.801Z,1010.16
2019-05-25T05:36:50.808Z,1010.13
2019-05-25T05:37:50.802Z,1010.20
2019-05-25T05:38:50.798Z,1010.22
2019-05-25T05:39:50.798Z,1010.13
2019-05-25T05:40:50.801Z,1010.15
2019-05-25T05:41:50.801Z,1010.07
2019-05-25T05:42:50.795Z,1010.14
2019-05-25T05:43:50.795Z,1010.13
2019-05-25T05:44:50.796Z,1010.15
2019-05-25T05:45:50.792Z,1010.14
2019-05-25T05:46:50.793Z,1010.12
2019-05-25T05:47:50.798Z,1010.06
2019-05-25T05:48:50.795Z,1010.13
2019-05-25T05:49:50.791Z,1010.11
2019-05-25T05:50:50.795Z,1010.13
2019-05-25T05:51:50.795Z,1010.11
2019-05-25T05:52:50.790Z,1010.16
2019-05-25T05:53:50.788Z,1010.11
2019-05-25T05:54:50.791Z,1010.18
2019-05-25T05:55:50.790Z,1010.14
2019-05-25T05:56:50.826Z,1010.11
2019-05-25T05:57:50.788Z,1010.21
2019-05-25T05:58:50.788Z,1010.22
2019-05-25T05:59:50.790Z,1010.23
2019-05-25T06:00:50.789Z,1010.22
2019-05-25T06:01:50.786Z,1010.23
2019-05-25T06:02:50.787Z,1010.23
2019-05-25T06:03:50.789Z,1010.22
2019-05-25T06:04:50.789Z,1010.22
2019-05-25T06:05:50.792Z,1010.25
2019-05-25T06:06:50.791Z,1010.20
2019-05-25T06:07:50.789Z,1010.14
2019-05-25T06:08:50.789Z,1010.27
2019-05-25T06:09:50.787Z,1010.28
2019-05-25T06:10:50.803Z,1010.28
2019-05-25T06:11:50.859Z,1010.23
2019-05-25T06:12:50.807Z,1010.22
2019-05-25T06:13:50.799Z,1010.21
2019-05-25T06:14:50.788Z,1010.40
2019-05-25T06:15:50.791Z,1010.27
2019-05-25T06:16:50.793Z,1010.43
2019-05-25T06:17:50.817Z,1010.34
2019-05-25T06:18:50.790Z,1010.42
2019-05-25T06:19:50.790Z,1010.29
2019-05-25T06:20:50.793Z,1010.31
2019-05-25T06:21:50.791Z,1010.29
2019-05-25T06:22:50.792Z,1010.28
2019-05-25T06:23:50.791Z,1010.49
2019-05-25T06:24:50.790Z,1010.40
2019-05-25T06:25:50.791Z,1010.40
2019-05-25T06:26:50.791Z,1010.35
2019-05-25T06:27:50.790Z,1010.43
2019-05-25T06:28:50.791Z,1010.41
2019-05-25T06:29:50.847Z,1010.42
2019-05-25T06:30:50.790Z,1010.47
2019-05-25T06:31:50.799Z,1010.45
2019-05-25T06:32:50.790Z,1010.43
2019-05-25T06:33:50.789Z,1010.40
2019-05-25T06:34:50.788Z,1010.41
2019-05-25T06:35:50.788Z,1010.43
2019-05-25T06:36:50.789Z,1010.45
2019-05-25T06:37:50.788Z,1010.46
2019-05-25T06:38:50.785Z,1010.45
2019-05-25T06:39:50.799Z,1010.47
2019-05-25T06:40:50.785Z,1010.39
2019-05-25T06:41:50.784Z,1010.56
2019-05-25T06:42:50.895Z,1010.57
2019-05-25T06:43:50.781Z,1010.59
2019-05-25T06:44:50.780Z,1010.50
2019-05-25T06:45:50.779Z,1010.64
2019-05-25T06:46:50.776Z,1010.64
2019-05-25T06:47:50.777Z,1010.61
2019-05-25T06:48:50.787Z,1010.59
2019-05-25T06:49:50.775Z,1010.68
2019-05-25T06:50:50.779Z,1010.64
2019-05-25T06:51:50.769Z,1010.69
2019-05-25T06:52:51.209Z,1010.73
2019-05-25T06:53:50.766Z,1010.69
2019-05-25T06:54:50.764Z,1010.69
2019-05-25T06:55:50.765Z,1010.70
2019-05-25T06:56:50.761Z,1010.68
2019-05-25T06:57:50.758Z,1010.77
2019-05-25T06:58:50.812Z,1010.79
2019-05-25T06:59:50.759Z,1010.79
2019-05-25T07:00:50.781Z,1010.78
2019-05-25T07:01:50.750Z,1010.78
2019-05-25T07:02:50.748Z,1010.79
2019-05-25T07:03:50.769Z,1010.76
2019-05-25T07:04:50.779Z,1010.76
2019-05-25T07:05:50.740Z,1010.80
2019-05-25T07:06:50.810Z,1010.78
2019-05-25T07:07:54.381Z,1010.80
2019-05-25T07:08:50.736Z,1010.80
2019-05-25T07:09:50.732Z,1010.85
2019-05-25T07:10:50.730Z,1010.78
2019-05-25T07:11:50.731Z,1010.79
2019-05-25T07:12:50.726Z,1010.83
2019-05-25T07:13:50.725Z,1010.81
2019-05-25T07:14:50.722Z,1010.81
2019-05-25T07:15:50.719Z,1010.80
2019-05-25T07:16:50.790Z,1010.81
2019-05-25T07:17:50.718Z,1010.79
2019-05-25T07:18:50.711Z,1010.81
2019-05-25T07:19:50.711Z,1010.80
2019-05-25T07:20:50.707Z,1010.81
2019-05-25T07:21:50.704Z,1010.81
2019-05-25T07:22:50.891Z,1010.79
2019-05-25T07:23:50.700Z,1010.79
2019-05-25T07:24:50.698Z,1010.74
2019-05-25T07:25:50.735Z,1010.77
2019-05-25T07:26:50.692Z,1010.83
2019-05-25T07:27:59.756Z,1010.82
2019-05-25T07:28:50.687Z,1010.85
2019-05-25T07:29:50.699Z,1010.86
2019-05-25T07:30:50.682Z,1010.84
2019-05-25T07:31:50.678Z,1010.86
2019-05-25T07:32:50.677Z,1010.85
2019-05-25T07:33:50.673Z,1010.90
2019-05-25T07:34:50.671Z,1010.87
2019-05-25T07:35:50.668Z,1010.91
2019-05-25T07:36:50.666Z,1010.91
2019-05-25T07:37:50.663Z,1010.91
2019-05-25T07:38:50.661Z,1010.93
2019-05-25T07:39:50.660Z,1010.94
2019-05-25T07:40:50.657Z,1010.95
2019-05-25T07:41:50.653Z,1010.96
2019-05-25T07:42:50.650Z,1010.91
2019-05-25T07:43:50.647Z,1010.93
2019-05-25T07:44:50.651Z,1010.95
2019-05-25T07:45:50.641Z,1010.93
2019-05-25T07:46:50.641Z,1010.95
2019-05-25T07:47:50.636Z,1010.95
2019-05-25T07:48:50.639Z,1010.96
2019-05-25T07:49:50.631Z,1010.97
2019-05-25T07:50:50.628Z,1011.02
2019-05-25T07:51:50.627Z,1010.98
2019-05-25T07:52:50.648Z,1010.97
2019-05-25T07:53:50.622Z,1010.98
2019-05-25T07:54:50.622Z,1010.97
2019-05-25T07:55:50.648Z,1011.00
2019-05-25T07:56:50.620Z,1010.96
2019-05-25T07:57:50.613Z,1010.99
2019-05-25T07:58:50.609Z,1011.01
2019-05-25T07:59:50.607Z,1011.06
2019-05-25T08:00:50.603Z,1011.02
2019-05-25T08:01:50.600Z,1011.04
2019-05-25T08:02:50.598Z,1011.00
2019-05-25T08:03:50.611Z,1011.05
2019-05-25T08:04:50.593Z,1011.07
2019-05-25T08:05:50.589Z,1011.06
2019-05-25T08:06:50.591Z,1011.05
2019-05-25T08:07:50.586Z,1011.09
2019-05-25T08:08:50.581Z,1011.11
2019-05-25T08:09:50.581Z,1011.10
2019-05-25T08:10:50.578Z,1011.08
2019-05-25T08:11:50.577Z,1011.09
2019-05-25T08:12:50.578Z,1011.08
2019-05-25T08:13:50.572Z,1011.07
2019-05-25T08:14:50.568Z,1011.10
2019-05-25T08:15:50.567Z,1011.13
2019-05-25T08:16:50.565Z,1011.11
2019-05-25T08:17:50.563Z,1011.10
2019-05-25T08:18:50.559Z,1011.09
2019-05-25T08:19:50.557Z,1011.14
2019-05-25T08:20:50.555Z,1011.15
2019-05-25T08:21:50.554Z,1011.14
2019-05-25T08:22:50.549Z,1011.15
2019-05-25T08:23:50.546Z,1011.14
2019-05-25T08:24:50.544Z,1011.17
2019-05-25T08:25:50.547Z,1011.24
2019-05-25T08:26:50.538Z,1011.20
2019-05-25T08:27:50.537Z,1011.21
2019-05-25T08:28:50.533Z,1011.24
2019-05-25T08:29:50.531Z,1011.22
2019-05-25T08:30:50.549Z,1011.28
2019-05-25T08:31:50.525Z,1011.25
2019-05-25T08:32:50.524Z,1011.26
2019-05-25T08:33:50.519Z,1011.24
2019-05-25T08:34:50.517Z,1011.24
2019-05-25T08:35:50.515Z,1011.24
2019-05-25T08:36:50.516Z,1011.25
2019-05-25T08:37:50.514Z,1011.25
2019-05-25T08:38:50.505Z,1011.27
2019-05-25T08:39:50.501Z,1011.27
2019-05-25T08:40:50.506Z,1011.23
2019-05-25T08:41:50.498Z,1011.24
2019-05-25T08:42:50.496Z,1011.22
2019-05-25T08:43:50.495Z,1011.18
2019-05-25T08:44:50.489Z,1011.24
2019-05-25T08:45:50.485Z,1011.25
2019-05-25T08:46:50.481Z,1011.22
2019-05-25T08:47:50.478Z,1011.25
2019-05-25T08:48:50.476Z,1011.25
2019-05-25T08:49:50.473Z,1011.20
2019-05-25T08:50:50.471Z,1011.26
2019-05-25T08:51:50.469Z,1011.23
2019-05-25T08:52:50.470Z,1011.27
2019-05-25T08:53:50.463Z,1011.23
2019-05-25T08:54:50.461Z,1011.25
2019-05-25T08:55:50.458Z,1011.27
2019-05-25T08:56:50.454Z,1011.25
2019-05-25T08:57:50.451Z,1011.26
2019-05-25T08:58:50.448Z,1011.25
2019-05-25T08:59:50.448Z,1011.25
2019-05-25T09:00:50.445Z,1011.25
2019-05-25T09:01:50.500Z,1011.31
2019-05-25T09:02:50.437Z,1011.22
2019-05-25T09:03:50.437Z,1011.25
2019-05-25T09:04:50.433Z,1011.24
2019-05-25T09:05:50.429Z,1011.28
2019-05-25T09:06:50.430Z,1011.25
